EGQS

RAF Lossiemouth Airport

Lossiemouth, United Kingdom
METAR EGQS 232150Z 17013KT CAVOK 03/M02 Q1020 BLU
Observed Flight Rules
Feb-23 @ 21:50 UTC (44 minutes ago) Visual Flight Rules
Wind Visibility Clouds
170° at 13 knots 10,000+ meters
  • Clear skies
Temperatures Readings
Current 3°C / 37°F
Dewpoint -2°C / 28°F
Humidity 70%
Altimeter 30.12" Hg
Pressure 1020 hPa
Elevation 13
METAR EGQS 232150Z 17013KT CAVOK 03/M02 Q1020 BLU
Observed Flight Rules
Feb-23 @ 21:50 UTC
(44 minutes ago)
VFR
Wind Visibility
170° at 13 knots 10,000+ meters
Clouds
  • Clear skies
Temperature Dewpoint
3°C / 37°F -2°C / 28°F
Humidity Altimeter Pressure
70% 30.12" Hg 1020 hPa